Time;durP1;ratioP1;P1;durP2;ratioP2;P2;SDS_P1;SDS_P2;PMS_P1;PMS_P2;Temp;Humidity;BMP_temperature;BMP_pressure;BME280_temperature;BME280_humidity;BME280_pressure;Samples;Min_cycle;Max_cycle;Signal;HPM_P1;HPM_P2
2022/07/07 00:01:40;;;;;;;6.93;5.90;;;;;;;;;;5012718;28;20113;-79
2022/07/07 00:04:08;;;;;;;6.78;5.78;;;;;;;;;;4994103;28;20029;-79
2022/07/07 00:06:34;;;;;;;6.65;5.53;;;;;;;;;;5008824;28;20496;-79
2022/07/07 00:09:00;;;;;;;6.57;4.75;;;;;;;;;;5014369;28;20112;-79
2022/07/07 00:11:26;;;;;;;6.93;6.00;;;;;;;;;;5014164;28;20096;-79
2022/07/07 00:13:52;;;;;;;7.03;5.97;;;;;;;;;;5014141;28;20096;-79
2022/07/07 00:16:18;;;;;;;6.75;5.53;;;;;;;;;;5012394;28;20393;-79
2022/07/07 00:18:45;;;;;;;8.00;6.00;;;;;;;;;;5014287;28;20480;-78
2022/07/07 00:21:11;;;;;;;7.10;5.53;;;;;;;;;;5014338;28;20022;-79
2022/07/07 00:23:38;;;;;;;7.95;5.40;;;;;;;;;;5014149;28;20113;-79
2022/07/07 00:26:04;;;;;;;6.60;5.15;;;;;;;;;;5012718;28;20061;-78
2022/07/07 00:28:30;;;;;;;6.53;5.43;;;;;;;;;;5013958;28;20018;-78
2022/07/07 00:30:56;;;;;;;6.53;5.28;;;;;;;;;;5006180;28;20100;-78
2022/07/07 00:33:22;;;;;;;6.80;5.70;;;;;;;;;;4993206;28;20113;-78
2022/07/07 00:35:48;;;;;;;7.43;5.70;;;;;;;;;;4992281;28;20070;-79
2022/07/07 00:38:14;;;;;;;7.68;6.22;;;;;;;;;;4992046;28;20019;-78
2022/07/07 00:40:40;;;;;;;6.55;5.60;;;;;;;;;;4993118;28;20416;-78
2022/07/07 00:43:06;;;;;;;7.95;5.53;;;;;;;;;;4992976;28;20033;-78
2022/07/07 00:45:33;;;;;;;7.03;5.60;;;;;;;;;;4999302;28;20033;-79
2022/07/07 00:47:59;;;;;;;8.15;6.55;;;;;;;;;;5012572;28;20108;-78
2022/07/07 00:50:25;;;;;;;8.98;6.03;;;;;;;;;;5011176;28;20036;-78
2022/07/07 00:52:52;;;;;;;6.40;5.40;;;;;;;;;;5012291;28;20034;-78
2022/07/07 00:55:18;;;;;;;8.35;6.20;;;;;;;;;;5011973;28;20116;-78
2022/07/07 00:57:44;;;;;;;7.10;5.75;;;;;;;;;;5011291;28;20030;-78
2022/07/07 01:00:11;;;;;;;8.38;6.22;;;;;;;;;;5012761;28;20476;-78
2022/07/07 01:02:37;;;;;;;7.03;5.82;;;;;;;;;;4992717;28;20152;-78
2022/07/07 01:05:05;;;;;;;7.25;5.88;;;;;;;;;;4991415;28;20477;-78
2022/07/07 01:07:32;;;;;;;7.05;6.07;;;;;;;;;;4992713;28;20026;-78
2022/07/07 01:09:59;;;;;;;7.05;5.90;;;;;;;;;;5000652;28;20021;-78
2022/07/07 01:12:25;;;;;;;8.13;6.72;;;;;;;;;;4976358;28;20035;-78
2022/07/07 01:14:51;;;;;;;7.32;5.97;;;;;;;;;;4972966;28;20031;-78
2022/07/07 01:17:18;;;;;;;7.00;5.75;;;;;;;;;;4973083;28;20401;-78
2022/07/07 01:19:44;;;;;;;6.70;5.72;;;;;;;;;;4973062;28;20638;-78
2022/07/07 01:22:12;;;;;;;7.45;5.55;;;;;;;;;;4987831;28;20559;-78
2022/07/07 01:24:38;;;;;;;6.85;5.63;;;;;;;;;;4992363;28;20037;-78
2022/07/07 01:27:04;;;;;;;7.07;5.95;;;;;;;;;;4992369;28;20040;-77
2022/07/07 01:29:34;;;;;;;7.43;6.05;;;;;;;;;;4991585;28;20105;-78
2022/07/07 01:32:00;;;;;;;7.65;6.43;;;;;;;;;;4985175;28;20058;-78
2022/07/07 01:34:26;;;;;;;9.25;5.82;;;;;;;;;;4990681;28;20049;-78
2022/07/07 01:36:52;;;;;;;6.80;5.68;;;;;;;;;;4992565;28;20475;-78
2022/07/07 01:39:18;;;;;;;8.30;5.97;;;;;;;;;;4992071;28;20473;-78
2022/07/07 01:41:44;;;;;;;7.20;6.25;;;;;;;;;;5010769;28;20030;-78
2022/07/07 01:44:10;;;;;;;8.93;6.43;;;;;;;;;;5011669;28;20050;-78
2022/07/07 01:46:36;;;;;;;8.27;6.15;;;;;;;;;;5011572;28;20022;-78
2022/07/07 01:49:02;;;;;;;7.90;6.53;;;;;;;;;;5011650;28;20395;-78
2022/07/07 01:51:28;;;;;;;8.10;6.07;;;;;;;;;;4994274;28;20030;-78
2022/07/07 01:53:54;;;;;;;9.18;6.50;;;;;;;;;;4990593;28;20030;-78
2022/07/07 01:56:20;;;;;;;8.15;6.18;;;;;;;;;;4991879;28;20465;-78
2022/07/07 01:58:46;;;;;;;6.93;6.10;;;;;;;;;;5007492;28;20109;-78
2022/07/07 02:01:12;;;;;;;7.97;6.10;;;;;;;;;;5004540;28;20030;-78
2022/07/07 02:03:38;;;;;;;7.15;6.00;;;;;;;;;;5006836;28;20061;-78
2022/07/07 02:06:04;;;;;;;7.63;5.95;;;;;;;;;;5012735;28;20022;-78
2022/07/07 02:08:30;;;;;;;7.85;6.00;;;;;;;;;;5015499;28;20120;-78
2022/07/07 02:11:14;;;;;;;7.38;5.88;;;;;;;;;;5015465;28;20104;-78
2022/07/07 02:13:43;;;;;;;7.28;6.03;;;;;;;;;;5016000;28;20037;-77
2022/07/07 02:16:10;;;;;;;7.35;6.15;;;;;;;;;;5014487;28;20491;-76
2022/07/07 02:18:37;;;;;;;6.90;5.88;;;;;;;;;;5015858;28;20048;-77
2022/07/07 02:21:06;;;;;;;8.13;6.22;;;;;;;;;;5016046;28;20384;-77
2022/07/07 02:23:33;;;;;;;7.18;6.13;;;;;;;;;;5013424;28;20022;-77
2022/07/07 02:25:59;;;;;;;6.93;6.20;;;;;;;;;;5015964;28;20038;-77
2022/07/07 02:28:26;;;;;;;7.18;6.15;;;;;;;;;;5014595;28;20030;-78
2022/07/07 02:30:53;;;;;;;9.10;7.07;;;;;;;;;;5011810;28;20026;-78
2022/07/07 02:33:19;;;;;;;7.63;6.43;;;;;;;;;;5002520;28;20168;-78
2022/07/07 02:35:46;;;;;;;8.05;6.60;;;;;;;;;;5013210;28;20512;-79
2022/07/07 02:38:12;;;;;;;9.02;6.30;;;;;;;;;;5014836;28;20326;-78
2022/07/07 02:40:38;;;;;;;7.80;6.40;;;;;;;;;;5015060;28;20088;-78
2022/07/07 02:43:04;;;;;;;8.57;7.50;;;;;;;;;;5014693;28;20022;-78
2022/07/07 02:45:30;;;;;;;7.32;6.18;;;;;;;;;;5010174;28;20030;-78
2022/07/07 02:47:56;;;;;;;8.63;6.63;;;;;;;;;;5014464;28;20030;-78
2022/07/07 02:50:22;;;;;;;7.78;6.75;;;;;;;;;;5014585;28;20101;-78
2022/07/07 02:52:48;;;;;;;8.00;7.05;;;;;;;;;;5014451;28;20314;-78
2022/07/07 02:55:14;;;;;;;8.68;7.55;;;;;;;;;;5014341;28;20068;-78
2022/07/07 02:57:40;;;;;;;7.85;6.88;;;;;;;;;;4998709;28;20034;-78
2022/07/07 03:00:07;;;;;;;8.30;6.68;;;;;;;;;;5006771;28;20018;-78
2022/07/07 03:02:34;;;;;;;7.72;5.88;;;;;;;;;;4996041;28;20026;-78
2022/07/07 03:05:00;;;;;;;9.02;7.00;;;;;;;;;;4995638;28;20092;-77
2022/07/07 03:07:26;;;;;;;7.93;6.43;;;;;;;;;;4994723;28;20460;-77
2022/07/07 03:09:52;;;;;;;7.60;6.50;;;;;;;;;;4995318;28;20092;-77
2022/07/07 03:12:18;;;;;;;7.80;6.30;;;;;;;;;;4993816;28;20121;-76
2022/07/07 03:14:44;;;;;;;8.23;6.35;;;;;;;;;;4995193;28;20034;-77
2022/07/07 03:17:10;;;;;;;7.28;5.95;;;;;;;;;;5009608;28;20037;-78
2022/07/07 03:19:36;;;;;;;7.32;5.78;;;;;;;;;;5013113;28;20026;-78
2022/07/07 03:22:03;;;;;;;7.65;6.13;;;;;;;;;;5014023;28;20065;-78
2022/07/07 03:24:31;;;;;;;8.23;6.72;;;;;;;;;;5013939;28;20396;-78
2022/07/07 03:26:58;;;;;;;8.95;6.38;;;;;;;;;;5011549;28;20128;-78
2022/07/07 03:29:25;;;;;;;8.60;7.00;;;;;;;;;;5014287;28;20045;-77
2022/07/07 03:31:51;;;;;;;7.72;6.25;;;;;;;;;;5001783;28;20041;-78
2022/07/07 03:34:17;;;;;;;7.72;6.43;;;;;;;;;;4993996;28;20493;-77
2022/07/07 03:36:43;;;;;;;8.60;7.03;;;;;;;;;;5008078;28;20030;-78
2022/07/07 03:39:09;;;;;;;7.28;6.28;;;;;;;;;;5013794;28;20021;-78
2022/07/07 03:41:35;;;;;;;8.63;6.72;;;;;;;;;;5013685;28;20436;-78
2022/07/07 03:44:01;;;;;;;8.13;7.00;;;;;;;;;;5013949;28;20018;-77
2022/07/07 03:46:27;;;;;;;7.95;6.78;;;;;;;;;;5000152;28;20109;-78
2022/07/07 03:48:53;;;;;;;9.77;6.90;;;;;;;;;;4993971;28;20129;-78
2022/07/07 03:51:19;;;;;;;8.55;7.05;;;;;;;;;;4994214;28;20023;-78
2022/07/07 03:53:45;;;;;;;8.90;6.57;;;;;;;;;;4993753;28;20022;-78
2022/07/07 03:56:11;;;;;;;10.35;6.88;;;;;;;;;;4993666;28;20697;-78
2022/07/07 03:58:37;;;;;;;9.27;7.10;;;;;;;;;;5007581;28;20026;-78
2022/07/07 04:01:03;;;;;;;12.52;7.10;;;;;;;;;;5009190;28;20112;-78
2022/07/07 04:03:29;;;;;;;8.77;7.05;;;;;;;;;;4993740;28;20634;-78
2022/07/07 04:05:55;;;;;;;7.95;6.97;;;;;;;;;;4993638;28;20413;-78
2022/07/07 04:08:21;;;;;;;9.25;6.80;;;;;;;;;;5004628;28;20041;-79
2022/07/07 04:10:47;;;;;;;7.82;6.78;;;;;;;;;;5013115;28;20026;-78
2022/07/07 04:13:13;;;;;;;10.40;6.85;;;;;;;;;;5012994;28;20562;-78
2022/07/07 04:15:39;;;;;;;11.00;6.90;;;;;;;;;;5011701;28;20030;-78
2022/07/07 04:18:05;;;;;;;10.23;7.10;;;;;;;;;;5012991;28;20018;-78
2022/07/07 04:20:31;;;;;;;9.40;6.82;;;;;;;;;;5012810;28;20506;-78
2022/07/07 04:22:58;;;;;;;12.02;7.15;;;;;;;;;;5012714;28;20309;-78
2022/07/07 04:25:24;;;;;;;9.77;6.82;;;;;;;;;;4999133;28;20034;-78
2022/07/07 04:27:50;;;;;;;8.50;5.90;;;;;;;;;;4992727;28;20022;-77
2022/07/07 04:30:16;;;;;;;10.15;6.60;;;;;;;;;;4992786;28;20049;-78
2022/07/07 04:32:42;;;;;;;9.80;5.70;;;;;;;;;;4992946;28;20030;-78
2022/07/07 04:35:09;;;;;;;8.10;5.88;;;;;;;;;;5003351;28;20053;-78
2022/07/07 04:37:35;;;;;;;8.25;5.88;;;;;;;;;;5012537;28;20381;-78
2022/07/07 04:40:03;;;;;;;7.80;6.00;;;;;;;;;;5012481;28;20366;-78
2022/07/07 04:42:29;;;;;;;7.85;5.78;;;;;;;;;;4993276;28;20022;-78
2022/07/07 04:44:55;;;;;;;9.95;6.05;;;;;;;;;;4992830;28;20026;-78
2022/07/07 04:47:21;;;;;;;8.05;6.45;;;;;;;;;;5004865;28;20377;-78
2022/07/07 04:49:47;;;;;;;10.18;6.30;;;;;;;;;;5012346;28;20034;-78
2022/07/07 04:52:13;;;;;;;8.32;6.35;;;;;;;;;;5012187;28;20145;-77
2022/07/07 04:54:40;;;;;;;18.75;7.03;;;;;;;;;;5003779;28;20117;-78
2022/07/07 04:57:06;;;;;;;13.18;6.28;;;;;;;;;;4992661;28;20026;-79
2022/07/07 04:59:31;;;;;;;8.68;6.78;;;;;;;;;;4992585;28;20448;-77
2022/07/07 05:01:57;;;;;;;7.97;6.65;;;;;;;;;;5008407;28;20030;-77
2022/07/07 05:04:24;;;;;;;7.03;5.40;;;;;;;;;;5012134;28;20026;-77
2022/07/07 05:06:50;;;;;;;6.80;5.25;;;;;;;;;;5010728;28;20084;-78
2022/07/07 05:09:16;;;;;;;8.50;6.07;;;;;;;;;;5011932;28;20033;-77
2022/07/07 05:11:42;;;;;;;7.78;5.75;;;;;;;;;;5000605;28;20434;-78
2022/07/07 05:14:08;;;;;;;8.48;5.95;;;;;;;;;;4994306;28;20416;-78
2022/07/07 05:16:34;;;;;;;10.10;6.13;;;;;;;;;;5012141;28;20492;-77
2022/07/07 05:19:00;;;;;;;7.65;6.80;;;;;;;;;;5010458;28;20021;-77
2022/07/07 05:21:26;;;;;;;8.38;5.28;;;;;;;;;;5011805;28;20040;-77
2022/07/07 05:23:53;;;;;;;8.07;6.13;;;;;;;;;;5011790;28;20022;-78
2022/07/07 05:26:19;;;;;;;8.30;5.57;;;;;;;;;;5011865;28;20523;-78
2022/07/07 05:28:46;;;;;;;9.55;6.47;;;;;;;;;;5008975;28;20038;-78
2022/07/07 05:31:13;;;;;;;6.93;5.55;;;;;;;;;;4999973;28;20177;-79
2022/07/07 05:33:42;;;;;;;6.78;5.45;;;;;;;;;;4992298;28;20034;-79
2022/07/07 05:36:09;;;;;;;7.05;5.60;;;;;;;;;;4992277;28;20484;-78
2022/07/07 05:38:35;;;;;;;9.05;6.80;;;;;;;;;;4997163;28;20030;-77
2022/07/07 05:41:01;;;;;;;8.48;5.80;;;;;;;;;;5006327;28;20029;-79
2022/07/07 05:43:27;;;;;;;8.68;5.47;;;;;;;;;;4991900;28;20025;-79
2022/07/07 05:45:54;;;;;;;10.52;6.55;;;;;;;;;;4992583;28;20057;-79
2022/07/07 05:48:20;;;;;;;9.63;6.18;;;;;;;;;;4991328;28;20062;-79
2022/07/07 05:50:46;;;;;;;7.25;6.15;;;;;;;;;;4992290;28;20054;-78
2022/07/07 05:53:12;;;;;;;8.13;6.00;;;;;;;;;;4992458;28;20034;-78
2022/07/07 05:55:39;;;;;;;7.82;6.57;;;;;;;;;;4992694;28;20061;-79
2022/07/07 05:58:05;;;;;;;7.85;6.22;;;;;;;;;;5002443;28;20084;-79
2022/07/07 06:00:31;;;;;;;8.23;6.55;;;;;;;;;;5011811;28;20029;-78
2022/07/07 06:02:57;;;;;;;9.07;6.15;;;;;;;;;;5009701;28;20092;-78
2022/07/07 06:05:23;;;;;;;8.73;6.20;;;;;;;;;;5007678;28;20488;-78
2022/07/07 06:07:50;;;;;;;9.35;6.50;;;;;;;;;;5011383;28;20113;-78
2022/07/07 06:10:16;;;;;;;8.05;6.20;;;;;;;;;;5010078;28;20022;-79
2022/07/07 06:12:42;;;;;;;13.70;7.70;;;;;;;;;;4993476;28;20053;-79
2022/07/07 06:15:09;;;;;;;9.30;5.95;;;;;;;;;;4991525;28;20034;-78
2022/07/07 06:17:35;;;;;;;8.65;5.80;;;;;;;;;;4992904;28;20041;-79
2022/07/07 06:20:01;;;;;;;9.00;5.80;;;;;;;;;;5007988;28;20492;-79
2022/07/07 06:22:28;;;;;;;8.07;5.80;;;;;;;;;;5011182;28;20423;-79
2022/07/07 06:24:54;;;;;;;7.55;5.82;;;;;;;;;;5011068;28;20030;-79
2022/07/07 06:27:20;;;;;;;7.38;5.63;;;;;;;;;;5011307;28;20373;-78
2022/07/07 06:29:47;;;;;;;7.25;5.28;;;;;;;;;;4996301;28;20058;-78
2022/07/07 06:32:15;;;;;;;7.65;5.38;;;;;;;;;;4991415;28;20497;-78
2022/07/07 06:34:41;;;;;;;6.65;5.78;;;;;;;;;;5006769;28;20114;-79
2022/07/07 06:37:07;;;;;;;7.38;5.65;;;;;;;;;;5010171;28;20492;-78
2022/07/07 06:39:33;;;;;;;8.00;5.93;;;;;;;;;;5010086;28;20561;-78
2022/07/07 06:41:59;;;;;;;6.15;4.90;;;;;;;;;;5004079;28;20030;-78
2022/07/07 06:44:30;;;;;;;6.28;5.13;;;;;;;;;;4990582;28;20031;-79
2022/07/07 06:46:58;;;;;;;7.88;5.47;;;;;;;;;;4991515;28;20030;-78
2022/07/07 06:49:24;;;;;;;6.75;5.57;;;;;;;;;;4991641;28;20052;-78
2022/07/07 06:51:50;;;;;;;7.55;5.40;;;;;;;;;;5009561;28;20022;-79
2022/07/07 06:54:16;;;;;;;6.50;5.45;;;;;;;;;;5012723;28;20129;-79
2022/07/07 06:56:42;;;;;;;7.55;5.22;;;;;;;;;;5013663;28;20496;-78
2022/07/07 06:59:08;;;;;;;6.95;5.15;;;;;;;;;;5014416;28;20028;-78
2022/07/07 07:01:35;;;;;;;6.43;5.45;;;;;;;;;;5005956;28;20034;-79
2022/07/07 07:04:01;;;;;;;6.60;4.85;;;;;;;;;;4994148;28;20025;-79
2022/07/07 07:06:30;;;;;;;6.28;5.43;;;;;;;;;;4995430;28;20488;-79
2022/07/07 07:08:56;;;;;;;6.40;5.53;;;;;;;;;;5013091;28;20036;-78
2022/07/07 07:11:22;;;;;;;6.82;5.28;;;;;;;;;;5013503;28;20025;-78
2022/07/07 07:13:49;;;;;;;6.18;5.20;;;;;;;;;;5013706;28;20026;-79
2022/07/07 07:16:15;;;;;;;9.13;5.63;;;;;;;;;;4977938;28;20027;-78
2022/07/07 07:18:41;;;;;;;6.55;5.53;;;;;;;;;;5004460;28;20054;-79
2022/07/07 07:21:07;;;;;;;6.82;5.95;;;;;;;;;;4994799;28;20046;-78
2022/07/07 07:23:33;;;;;;;9.70;6.00;;;;;;;;;;4994680;28;20031;-78
2022/07/07 07:25:59;;;;;;;6.95;5.50;;;;;;;;;;4995898;28;20042;-78
2022/07/07 07:28:26;;;;;;;6.38;5.53;;;;;;;;;;4994581;28;20065;-79
2022/07/07 07:30:52;;;;;;;7.20;5.38;;;;;;;;;;4994422;28;20115;-78
2022/07/07 07:33:18;;;;;;;7.70;5.28;;;;;;;;;;4994404;28;20022;-79
2022/07/07 07:35:44;;;;;;;6.20;5.13;;;;;;;;;;4994085;28;20051;-78
2022/07/07 07:38:10;;;;;;;7.65;5.30;;;;;;;;;;5003960;28;20025;-79
2022/07/07 07:40:36;;;;;;;8.40;5.18;;;;;;;;;;5014654;28;20033;-78
2022/07/07 07:43:02;;;;;;;8.23;5.53;;;;;;;;;;5014460;28;20022;-79
2022/07/07 07:45:28;;;;;;;7.28;5.03;;;;;;;;;;4992953;28;20036;-79
2022/07/07 07:47:56;;;;;;;5.50;4.82;;;;;;;;;;4994399;28;20493;-79
2022/07/07 07:50:22;;;;;;;8.07;4.97;;;;;;;;;;4992815;28;20498;-78
2022/07/07 07:52:49;;;;;;;6.47;4.63;;;;;;;;;;4994415;28;20564;-79
2022/07/07 07:55:16;;;;;;;6.07;4.78;;;;;;;;;;4994109;28;20058;-79
2022/07/07 07:57:42;;;;;;;10.85;5.10;;;;;;;;;;4993611;28;20027;-78
2022/07/07 08:00:10;;;;;;;7.65;4.97;;;;;;;;;;4994233;28;20077;-79
2022/07/07 08:02:36;;;;;;;6.55;4.65;;;;;;;;;;4993973;28;20026;-78
2022/07/07 08:05:02;;;;;;;7.43;4.72;;;;;;;;;;5004644;28;20520;-79
2022/07/07 08:07:28;;;;;;;6.65;4.82;;;;;;;;;;5012886;28;20037;-79
2022/07/07 08:09:54;;;;;;;5.55;4.95;;;;;;;;;;5012690;28;20049;-79
2022/07/07 08:12:20;;;;;;;6.03;4.95;;;;;;;;;;5013556;28;20623;-79
2022/07/07 08:14:47;;;;;;;7.30;5.18;;;;;;;;;;4995769;28;20034;-79
2022/07/07 08:17:13;;;;;;;6.25;4.57;;;;;;;;;;4975161;28;20704;-79
2022/07/07 08:19:38;;;;;;;6.75;4.72;;;;;;;;;;4974875;28;20027;-79
2022/07/07 08:22:05;;;;;;;5.60;4.28;;;;;;;;;;4992610;28;20034;-79
2022/07/07 08:24:31;;;;;;;5.85;4.97;;;;;;;;;;4994127;28;20037;-78
2022/07/07 08:26:57;;;;;;;6.47;4.97;;;;;;;;;;4995347;28;20030;-80
2022/07/07 08:29:23;;;;;;;6.63;4.55;;;;;;;;;;4993232;28;20029;-79
2022/07/07 08:31:49;;;;;;;6.53;5.15;;;;;;;;;;4993657;28;20041;-78
2022/07/07 08:34:15;;;;;;;6.68;4.75;;;;;;;;;;4993030;28;20023;-78
2022/07/07 08:36:41;;;;;;;5.82;4.55;;;;;;;;;;4994312;28;20531;-79
2022/07/07 08:39:07;;;;;;;6.35;4.40;;;;;;;;;;4993871;28;20114;-79
2022/07/07 08:41:34;;;;;;;5.93;4.20;;;;;;;;;;5011366;28;20061;-80
2022/07/07 08:44:00;;;;;;;6.57;4.22;;;;;;;;;;5013077;28;20026;-79
2022/07/07 08:46:26;;;;;;;5.60;4.32;;;;;;;;;;5013955;28;20447;-79
2022/07/07 08:48:54;;;;;;;7.43;4.50;;;;;;;;;;4995656;28;20503;-78
2022/07/07 08:51:21;;;;;;;7.53;4.50;;;;;;;;;;4994108;28;20065;-81
2022/07/07 08:53:47;;;;;;;5.28;4.03;;;;;;;;;;4992629;28;20030;-79
2022/07/07 08:56:15;;;;;;;6.40;4.40;;;;;;;;;;4994028;28;20030;-79
2022/07/07 08:58:42;;;;;;;5.43;4.00;;;;;;;;;;4993312;28;20392;-79
2022/07/07 09:01:09;;;;;;;5.75;4.22;;;;;;;;;;4993526;28;20033;-80
2022/07/07 09:03:35;;;;;;;4.95;3.72;;;;;;;;;;4993566;28;20026;-79
2022/07/07 09:06:01;;;;;;;5.40;4.10;;;;;;;;;;4994132;28;20041;-80
2022/07/07 09:08:28;;;;;;;6.43;4.00;;;;;;;;;;5002942;28;20026;-79
2022/07/07 09:10:54;;;;;;;6.70;4.47;;;;;;;;;;5012672;28;20026;-79
2022/07/07 09:13:21;;;;;;;6.90;3.92;;;;;;;;;;5014041;28;20021;-79
2022/07/07 09:15:48;;;;;;;6.28;4.00;;;;;;;;;;5013387;28;20121;-79
2022/07/07 09:18:27;;;;;;;11.40;3.80;;;;;;;;;;5007541;28;20018;-78
2022/07/07 09:20:54;;;;;;;6.00;4.10;;;;;;;;;;5012921;28;20571;-79
2022/07/07 09:23:19;;;;;;;7.50;3.85;;;;;;;;;;5013302;28;20488;-79
2022/07/07 09:25:46;;;;;;;5.95;4.20;;;;;;;;;;5013054;28;20030;-79
2022/07/07 09:28:12;;;;;;;5.55;4.10;;;;;;;;;;5011220;28;20026;-79
2022/07/07 09:30:39;;;;;;;6.70;4.65;;;;;;;;;;5012462;28;20049;-79
2022/07/07 09:33:09;;;;;;;6.65;4.70;;;;;;;;;;5012207;28;20030;-79
2022/07/07 09:38:24;;;;;;;5.65;4.50;;;;;;;;;;5003529;28;20117;-80
2022/07/07 09:40:51;;;;;;;5.43;4.00;;;;;;;;;;4992234;28;20060;-79
2022/07/07 09:43:18;;;;;;;6.57;4.35;;;;;;;;;;4992493;28;20018;-79
2022/07/07 09:45:46;;;;;;;7.60;4.38;;;;;;;;;;4993228;28;20026;-79
2022/07/07 09:48:13;;;;;;;6.00;4.10;;;;;;;;;;4998011;28;20499;-78
2022/07/07 09:50:39;;;;;;;6.38;3.88;;;;;;;;;;4998877;28;20027;-79
2022/07/07 09:53:08;;;;;;;6.95;4.07;;;;;;;;;;4993103;28;20591;-79
2022/07/07 09:55:34;;;;;;;7.13;4.20;;;;;;;;;;4992611;28;20565;-78
2022/07/07 09:58:00;;;;;;;5.57;4.10;;;;;;;;;;4991782;28;20112;-79
2022/07/07 10:00:26;;;;;;;7.07;3.72;;;;;;;;;;4992723;28;20070;-79
2022/07/07 10:02:54;;;;;;;7.72;3.72;;;;;;;;;;4992758;28;20389;-79
2022/07/07 10:05:20;;;;;;;6.25;3.40;;;;;;;;;;4992588;28;20045;-79
2022/07/07 10:07:50;;;;;;;6.45;4.03;;;;;;;;;;5001713;28;20026;-79
2022/07/07 10:10:19;;;;;;;5.93;4.03;;;;;;;;;;5006942;28;20026;-79
2022/07/07 10:12:46;;;;;;;6.30;4.50;;;;;;;;;;4991853;28;20034;-79
2022/07/07 10:15:12;;;;;;;7.78;4.22;;;;;;;;;;4991870;28;20064;-79
2022/07/07 10:17:43;;;;;;;5.45;3.53;;;;;;;;;;4990834;28;20412;-79
2022/07/07 10:20:09;;;;;;;5.28;3.92;;;;;;;;;;4975414;28;20034;-78
2022/07/07 10:22:35;;;;;;;6.38;3.00;;;;;;;;;;4983213;28;20026;-78
2022/07/07 10:25:02;;;;;;;6.10;3.00;;;;;;;;;;5011502;28;20026;-79
2022/07/07 10:27:30;;;;;;;4.95;2.90;;;;;;;;;;5012884;28;20400;-80
2022/07/07 10:30:00;;;;;;;4.97;2.88;;;;;;;;;;5015303;28;20458;-78
2022/07/07 10:32:30;;;;;;;6.97;3.90;;;;;;;;;;5014295;28;20026;-79
2022/07/07 10:34:58;;;;;;;5.47;3.30;;;;;;;;;;5012567;28;20445;-79
2022/07/07 10:37:24;;;;;;;6.30;3.60;;;;;;;;;;5015190;28;20026;-79
2022/07/07 10:39:53;;;;;;;6.38;3.80;;;;;;;;;;5014852;28;20033;-80
2022/07/07 10:42:19;;;;;;;7.13;3.28;;;;;;;;;;4976098;28;20046;-79
2022/07/07 10:44:47;;;;;;;5.57;3.90;;;;;;;;;;4999421;28;20416;-79
2022/07/07 10:47:13;;;;;;;5.25;3.40;;;;;;;;;;5015356;28;20025;-78
2022/07/07 10:49:46;;;;;;;6.25;3.75;;;;;;;;;;5015129;28;20038;-78
2022/07/07 10:52:16;;;;;;;5.97;3.50;;;;;;;;;;5015018;28;20495;-79
2022/07/07 10:54:43;;;;;;;7.88;4.32;;;;;;;;;;5003259;28;20026;-78
2022/07/07 10:57:09;;;;;;;5.18;3.35;;;;;;;;;;5010070;28;20176;-78
2022/07/07 10:59:56;;;;;;;4.57;3.10;;;;;;;;;;5014834;28;20567;-79
2022/07/07 11:02:38;;;;;;;5.30;3.45;;;;;;;;;;4990122;28;20456;-79
2022/07/07 11:05:10;;;;;;;5.05;2.95;;;;;;;;;;5028582;28;20060;-78
2022/07/07 11:07:37;;;;;;;4.85;2.95;;;;;;;;;;5015424;28;20037;-79
2022/07/07 11:10:05;;;;;;;4.88;3.30;;;;;;;;;;5015813;28;20026;-80
2022/07/07 11:12:38;;;;;;;5.13;3.40;;;;;;;;;;5016073;28;20048;-78
2022/07/07 11:15:30;;;;;;;6.60;3.85;;;;;;;;;;5015759;28;20029;-79
2022/07/07 11:17:56;;;;;;;5.38;3.47;;;;;;;;;;5014539;28;20072;-79
2022/07/07 11:20:27;;;;;;;5.95;3.13;;;;;;;;;;5014229;28;20037;-79
2022/07/07 11:22:53;;;;;;;6.18;3.10;;;;;;;;;;5015327;28;20018;-78
2022/07/07 11:25:20;;;;;;;5.75;3.35;;;;;;;;;;5004176;28;20100;-78
2022/07/07 11:27:48;;;;;;;6.05;3.78;;;;;;;;;;4995037;28;20030;-79
2022/07/07 11:30:15;;;;;;;5.38;3.10;;;;;;;;;;5009778;28;20431;-79
2022/07/07 11:32:42;;;;;;;5.75;3.40;;;;;;;;;;5014701;28;20065;-79
2022/07/07 11:35:09;;;;;;;5.65;3.55;;;;;;;;;;5013772;28;20052;-79
2022/07/07 11:37:39;;;;;;;6.28;3.83;;;;;;;;;;5013969;28;20038;-79
2022/07/07 11:40:06;;;;;;;6.60;3.67;;;;;;;;;;5014894;28;20026;-80
2022/07/07 11:42:36;;;;;;;7.07;3.30;;;;;;;;;;5015916;28;20108;-80
2022/07/07 11:45:02;;;;;;;6.18;3.15;;;;;;;;;;5014048;28;20033;-79
2022/07/07 11:47:33;;;;;;;5.03;2.47;;;;;;;;;;5004580;28;20026;-78
2022/07/07 11:49:59;;;;;;;4.82;2.65;;;;;;;;;;4995242;28;20172;-77
2022/07/07 11:52:25;;;;;;;4.13;1.90;;;;;;;;;;4993482;28;20125;-78
2022/07/07 11:54:51;;;;;;;5.43;1.75;;;;;;;;;;4993477;28;20034;-78
2022/07/07 11:57:33;;;;;;;7.40;2.00;;;;;;;;;;5001461;28;20046;-78
2022/07/07 12:00:12;;;;;;;7.13;1.87;;;;;;;;;;5013884;28;20285;-78
2022/07/07 12:02:39;;;;;;;4.53;1.60;;;;;;;;;;5014490;28;20263;-78
2022/07/07 12:05:05;;;;;;;4.18;2.17;;;;;;;;;;5015286;28;20022;-78
2022/07/07 12:07:31;;;;;;;4.55;1.90;;;;;;;;;;5014369;28;20373;-79
2022/07/07 12:09:57;;;;;;;3.90;1.60;;;;;;;;;;5015240;28;20033;-79
2022/07/07 12:12:23;;;;;;;3.33;1.52;;;;;;;;;;5011247;28;20117;-79
2022/07/07 12:14:49;;;;;;;4.75;1.85;;;;;;;;;;4993917;28;20120;-78
2022/07/07 12:17:33;;;;;;;3.65;1.58;;;;;;;;;;4994925;28;20113;-80
2022/07/07 12:19:59;;;;;;;3.75;1.60;;;;;;;;;;4995693;28;20022;-80
2022/07/07 12:22:33;;;;;;;5.20;1.88;;;;;;;;;;4995455;28;20056;-81
2022/07/07 12:25:00;;;;;;;4.25;1.63;;;;;;;;;;4995225;28;20089;-79
2022/07/07 12:27:26;;;;;;;3.90;1.83;;;;;;;;;;4988426;28;20054;-78
2022/07/07 12:29:59;;;;;;;7.00;2.13;;;;;;;;;;4984318;28;20362;-80
2022/07/07 12:32:25;;;;;;;4.97;2.30;;;;;;;;;;4996535;28;20081;-79
2022/07/07 12:34:51;;;;;;;5.85;2.60;;;;;;;;;;4996549;28;20118;-82
2022/07/07 12:37:17;;;;;;;5.07;2.45;;;;;;;;;;4989822;28;20401;-78
2022/07/07 12:39:43;;;;;;;4.55;2.38;;;;;;;;;;4976441;28;20027;-79
2022/07/07 12:42:09;;;;;;;4.70;2.60;;;;;;;;;;4976565;28;20642;-76
2022/07/07 12:44:35;;;;;;;5.20;2.80;;;;;;;;;;4981879;28;20058;-79
2022/07/07 12:47:02;;;;;;;5.45;3.05;;;;;;;;;;4994318;28;20097;-78
2022/07/07 12:49:28;;;;;;;6.22;2.92;;;;;;;;;;4994811;28;20022;-78
2022/07/07 12:51:55;;;;;;;6.70;3.17;;;;;;;;;;4993907;28;20034;-78
2022/07/07 12:54:21;;;;;;;4.93;3.03;;;;;;;;;;4994182;28;20022;-78
2022/07/07 12:56:56;;;;;;;5.88;3.20;;;;;;;;;;4997710;28;20443;-79
2022/07/07 12:59:23;;;;;;;4.75;3.20;;;;;;;;;;5014087;28;20018;-79
2022/07/07 13:01:52;;;;;;;5.32;2.88;;;;;;;;;;5000211;28;20030;-78
2022/07/07 13:04:18;;;;;;;7.93;3.20;;;;;;;;;;4993138;28;20649;-79
2022/07/07 13:06:45;;;;;;;6.55;2.88;;;;;;;;;;4994489;28;20600;-78
2022/07/07 13:09:12;;;;;;;5.05;2.92;;;;;;;;;;4998790;28;20025;-78
2022/07/07 13:11:38;;;;;;;6.05;3.10;;;;;;;;;;5014199;28;20026;-80
2022/07/07 13:14:04;;;;;;;5.68;2.72;;;;;;;;;;5012964;28;20492;-79
2022/07/07 13:16:30;;;;;;;5.68;3.13;;;;;;;;;;5001472;28;20038;-79
2022/07/07 13:18:56;;;;;;;5.68;2.67;;;;;;;;;;4993225;28;20481;-79
2022/07/07 13:21:22;;;;;;;5.65;3.00;;;;;;;;;;4995545;28;20029;-78
2022/07/07 13:23:48;;;;;;;4.95;2.85;;;;;;;;;;4983314;28;20031;-77
2022/07/07 13:26:14;;;;;;;4.60;2.88;;;;;;;;;;4975061;28;20106;-80
2022/07/07 13:28:41;;;;;;;4.07;2.45;;;;;;;;;;4993612;28;20035;-77
2022/07/07 13:31:07;;;;;;;5.93;2.72;;;;;;;;;;4994543;28;20030;-77
2022/07/07 13:33:33;;;;;;;5.47;3.00;;;;;;;;;;4993969;28;20026;-78
2022/07/07 13:35:59;;;;;;;6.15;2.80;;;;;;;;;;4993868;28;20030;-79
2022/07/07 13:38:25;;;;;;;5.05;3.20;;;;;;;;;;4994648;28;20023;-79
2022/07/07 13:40:54;;;;;;;5.07;3.20;;;;;;;;;;4994765;28;20393;-80
2022/07/07 13:43:20;;;;;;;5.63;3.40;;;;;;;;;;4994443;28;20109;-81
2022/07/07 13:45:46;;;;;;;5.57;3.45;;;;;;;;;;5001877;28;20033;-79
2022/07/07 13:48:13;;;;;;;5.28;3.10;;;;;;;;;;5014643;28;20498;-80
2022/07/07 13:50:39;;;;;;;5.90;3.30;;;;;;;;;;5014163;28;20025;-79
2022/07/07 13:53:05;;;;;;;5.07;3.22;;;;;;;;;;5014183;28;20079;-80
2022/07/07 13:55:31;;;;;;;7.13;3.63;;;;;;;;;;5004601;28;20029;-79
2022/07/07 13:57:57;;;;;;;6.50;3.90;;;;;;;;;;5003835;28;20488;-79
2022/07/07 14:00:23;;;;;;;5.03;3.22;;;;;;;;;;5015184;28;20044;-80
2022/07/07 14:02:50;;;;;;;6.20;3.60;;;;;;;;;;5017704;28;20029;-79
2022/07/07 14:05:16;;;;;;;5.72;3.58;;;;;;;;;;5018114;28;20034;-80
2022/07/07 14:07:43;;;;;;;7.63;3.30;;;;;;;;;;5014980;28;20045;-80
2022/07/07 14:10:09;;;;;;;4.88;3.53;;;;;;;;;;5004588;28;20037;-79
2022/07/07 14:12:35;;;;;;;6.57;3.47;;;;;;;;;;5018315;28;20377;-81
2022/07/07 14:15:01;;;;;;;5.95;3.40;;;;;;;;;;5017479;28;20034;-79
2022/07/07 14:17:27;;;;;;;5.60;3.60;;;;;;;;;;5017165;28;20046;-78
2022/07/07 14:19:54;;;;;;;5.95;3.80;;;;;;;;;;5016901;28;20080;-79
2022/07/07 14:22:20;;;;;;;6.72;3.67;;;;;;;;;;5016335;28;20033;-79
2022/07/07 14:24:46;;;;;;;7.10;4.35;;;;;;;;;;4998475;28;20104;-79
2022/07/07 14:27:12;;;;;;;6.22;4.00;;;;;;;;;;4998285;28;20033;-79
2022/07/07 14:29:38;;;;;;;6.88;3.92;;;;;;;;;;4998246;28;20035;-78
2022/07/07 14:32:05;;;;;;;6.25;4.07;;;;;;;;;;4998005;28;20026;-80
2022/07/07 14:34:31;;;;;;;5.72;4.57;;;;;;;;;;4998658;28;20077;-82
2022/07/07 14:36:57;;;;;;;8.88;4.20;;;;;;;;;;5005711;28;20076;-81
2022/07/07 14:39:23;;;;;;;5.85;4.05;;;;;;;;;;5004519;28;20522;-80
2022/07/07 14:41:50;;;;;;;6.40;3.97;;;;;;;;;;4996927;28;20086;-79
2022/07/07 14:44:16;;;;;;;6.10;4.07;;;;;;;;;;4998196;28;20027;-80